Terminal Aerodrome Forecast
Issued by NWS Pocatello, ID

Home | Current Version | Previous Version | Text Only | Print | Product List | Glossary On
Versions: 1 2 3 4 5 6 7 8 9 10 11 12 13 14 15
000
FTUS45 KPIH 230500
TAFBYI
TAF
KBYI 230520Z 2306/2406 VRB06KT P6SM SKC
     FM231600 26010KT P6SM BKN200
     FM232000 28010G15KT P6SM FEW130 BKN200
     FM240200 23008KT P6SM VCSH SCT130 BKN160=

USA.gov is the U.S. government's official web portal to all federal, state and local government web resources and services.